sensor_id;sensor_type;location;lat;lon;timestamp;pressure;altitude;pressure_sealevel;temperature;humidity
46199;BME280;31928;52.104;10.030;2024-02-21T10:33:15;100692.47;;;14.02;48.01
46199;BME280;31928;52.104;10.030;2024-02-21T10:35:42;100692.09;;;14.16;47.27
46199;BME280;31928;52.104;10.030;2024-02-21T10:38:09;100677.22;;;14.54;48.17
46199;BME280;31928;52.104;10.030;2024-02-21T10:40:36;100679.59;;;14.33;46.33
46199;BME280;31928;52.104;10.030;2024-02-21T10:43:03;100665.88;;;14.35;46.68
46199;BME280;31928;52.104;10.030;2024-02-21T10:45:36;100657.94;;;14.40;47.11
46199;BME280;31928;52.104;10.030;2024-02-21T10:48:13;100660.63;;;14.40;46.85
46199;BME280;31928;52.104;10.030;2024-02-21T10:53:50;100645.06;;;14.42;47.82
46199;BME280;31928;52.104;10.030;2024-02-21T10:56:30;100640.66;;;14.29;46.98
46199;BME280;31928;52.104;10.030;2024-02-21T10:58:58;100640.66;;;14.29;46.90
46199;BME280;31928;52.104;10.030;2024-02-21T11:01:26;100637.72;;;14.31;46.81
46199;BME280;31928;52.104;10.030;2024-02-21T11:03:57;100636.94;;;14.30;46.93
46199;BME280;31928;52.104;10.030;2024-02-21T11:06:26;100624.25;;;14.31;47.12
46199;BME280;31928;52.104;10.030;2024-02-21T11:11:34;100622.72;;;14.35;47.29
46199;BME280;31928;52.104;10.030;2024-02-21T11:14:10;100620.63;;;14.37;47.29
46199;BME280;31928;52.104;10.030;2024-02-21T11:16:39;100612.88;;;14.29;47.32
46199;BME280;31928;52.104;10.030;2024-02-21T11:19:19;100602.81;;;14.36;47.19
46199;BME280;31928;52.104;10.030;2024-02-21T11:21:46;100589.56;;;14.34;46.28
46199;BME280;31928;52.104;10.030;2024-02-21T11:24:26;100593.31;;;14.44;47.34
46199;BME280;31928;52.104;10.030;2024-02-21T11:26:54;100586.16;;;14.39;46.39
46199;BME280;31928;52.104;10.030;2024-02-21T11:29:24;100576.09;;;14.45;46.83
46199;BME280;31928;52.104;10.030;2024-02-21T11:31:55;100585.72;;;14.42;46.32
46199;BME280;31928;52.104;10.030;2024-02-21T11:34:21;100572.78;;;14.43;46.12
46199;BME280;31928;52.104;10.030;2024-02-21T11:36:52;100568.13;;;14.50;46.60
46199;BME280;31928;52.104;10.030;2024-02-21T11:39:20;100559.44;;;14.48;46.40
46199;BME280;31928;52.104;10.030;2024-02-21T11:42:05;100558.28;;;14.56;46.88
46199;BME280;31928;52.104;10.030;2024-02-21T11:44:32;100559.31;;;14.55;46.94
46199;BME280;31928;52.104;10.030;2024-02-21T11:46:59;100554.28;;;14.81;47.11
46199;BME280;31928;52.104;10.030;2024-02-21T11:49:28;100548.03;;;14.58;44.73
46199;BME280;31928;52.104;10.030;2024-02-21T11:52:01;100538.22;;;14.63;46.20
46199;BME280;31928;52.104;10.030;2024-02-21T11:54:31;100532.22;;;14.61;45.41
46199;BME280;31928;52.104;10.030;2024-02-21T11:56:58;100560.84;;;14.62;44.68
46199;BME280;31928;52.104;10.030;2024-02-21T11:59:24;100531.28;;;14.67;45.35
46199;BME280;31928;52.104;10.030;2024-02-21T12:01:52;100531.38;;;14.95;46.17
46199;BME280;31928;52.104;10.030;2024-02-21T12:04:20;100526.59;;;14.74;44.79
46199;BME280;31928;52.104;10.030;2024-02-21T12:06:47;100535.16;;;14.71;44.13
46199;BME280;31928;52.104;10.030;2024-02-21T12:09:14;100515.75;;;14.97;44.79
46199;BME280;31928;52.104;10.030;2024-02-21T12:11:43;100510.38;;;14.74;43.65
46199;BME280;31928;52.104;10.030;2024-02-21T12:14:10;100499.59;;;14.74;44.78
46199;BME280;31928;52.104;10.030;2024-02-21T12:16:37;100490.94;;;14.72;45.20
46199;BME280;31928;52.104;10.030;2024-02-21T12:19:04;100483.41;;;14.74;44.45
46199;BME280;31928;52.104;10.030;2024-02-21T12:21:33;100479.06;;;14.73;45.00
46199;BME280;31928;52.104;10.030;2024-02-21T12:26:40;100471.66;;;14.80;44.79
46199;BME280;31928;52.104;10.030;2024-02-21T12:29:08;100473.06;;;14.83;44.98
46199;BME280;31928;52.104;10.030;2024-02-21T12:31:38;100467.78;;;14.88;44.61
46199;BME280;31928;52.104;10.030;2024-02-21T12:34:05;100468.09;;;14.91;44.49
46199;BME280;31928;52.104;10.030;2024-02-21T12:36:33;100474.66;;;14.95;44.84
46199;BME280;31928;52.104;10.030;2024-02-21T12:38:59;100461.88;;;15.02;44.66
46199;BME280;31928;52.104;10.030;2024-02-21T12:41:29;100456.09;;;15.10;44.75
46199;BME280;31928;52.104;10.030;2024-02-21T12:43:56;100451.34;;;15.17;44.51
46199;BME280;31928;52.104;10.030;2024-02-21T12:46:23;100453.75;;;15.25;44.64
46199;BME280;31928;52.104;10.030;2024-02-21T12:48:50;100450.06;;;15.31;43.44
46199;BME280;31928;52.104;10.030;2024-02-21T12:51:17;100445.59;;;15.36;43.73
46199;BME280;31928;52.104;10.030;2024-02-21T12:53:48;100440.03;;;15.43;44.38
46199;BME280;31928;52.104;10.030;2024-02-21T12:56:16;100438.25;;;15.48;43.62
46199;BME280;31928;52.104;10.030;2024-02-21T12:58:43;100445.59;;;15.53;43.70
46199;BME280;31928;52.104;10.030;2024-02-21T13:01:10;100438.91;;;15.55;44.11
46199;BME280;31928;52.104;10.030;2024-02-21T13:03:36;100441.69;;;15.60;43.72
46199;BME280;31928;52.104;10.030;2024-02-21T13:06:05;100428.78;;;15.62;42.99
46199;BME280;31928;52.104;10.030;2024-02-21T13:08:32;100439.91;;;15.65;43.33
46199;BME280;31928;52.104;10.030;2024-02-21T13:11:01;100428.63;;;15.68;43.43
46199;BME280;31928;52.104;10.030;2024-02-21T13:13:28;100421.06;;;15.70;43.59
46199;BME280;31928;52.104;10.030;2024-02-21T13:15:54;100428.31;;;15.98;45.00
46199;BME280;31928;52.104;10.030;2024-02-21T13:18:21;100421.66;;;15.72;42.83
46199;BME280;31928;52.104;10.030;2024-02-21T13:20:48;100417.22;;;15.66;43.39
46199;BME280;31928;52.104;10.030;2024-02-21T13:23:15;100392.06;;;15.66;43.73
46199;BME280;31928;52.104;10.030;2024-02-21T13:25:41;100387.31;;;15.89;44.54
46199;BME280;31928;52.104;10.030;2024-02-21T13:28:08;100381.53;;;15.64;44.25
46199;BME280;31928;52.104;10.030;2024-02-21T13:30:36;100383.06;;;15.61;44.43
46199;BME280;31928;52.104;10.030;2024-02-21T13:33:02;100380.53;;;15.87;46.06
46199;BME280;31928;52.104;10.030;2024-02-21T13:35:30;100374.88;;;15.56;44.31
46199;BME280;31928;52.104;10.030;2024-02-21T13:37:56;100365.03;;;15.50;44.57
46199;BME280;31928;52.104;10.030;2024-02-21T13:40:23;100355.19;;;15.44;45.06
46199;BME280;31928;52.104;10.030;2024-02-21T13:42:52;100353.50;;;15.38;45.01
46199;BME280;31928;52.104;10.030;2024-02-21T13:45:20;100333.66;;;15.32;45.56
46199;BME280;31928;52.104;10.030;2024-02-21T13:47:47;100326.53;;;15.59;46.62
46199;BME280;31928;52.104;10.030;2024-02-21T13:50:15;100337.19;;;15.33;45.62
46199;BME280;31928;52.104;10.030;2024-02-21T13:52:41;100321.13;;;15.26;45.48
46199;BME280;31928;52.104;10.030;2024-02-21T13:55:08;100320.84;;;15.56;46.89
46199;BME280;31928;52.104;10.030;2024-02-21T13:57:38;100316.38;;;15.33;45.88
46199;BME280;31928;52.104;10.030;2024-02-21T14:00:05;100311.63;;;15.24;45.18
46199;BME280;31928;52.104;10.030;2024-02-21T14:02:32;100308.13;;;15.23;45.87
46199;BME280;31928;52.104;10.030;2024-02-21T14:04:59;100297.53;;;15.22;46.05
46199;BME280;31928;52.104;10.030;2024-02-21T14:07:26;100290.53;;;15.21;45.71
46199;BME280;31928;52.104;10.030;2024-02-21T14:09:52;100274.81;;;15.51;47.17
46199;BME280;31928;52.104;10.030;2024-02-21T14:12:19;100253.53;;;15.21;46.00
46199;BME280;31928;52.104;10.030;2024-02-21T14:14:48;100266.66;;;15.18;46.34
46199;BME280;31928;52.104;10.030;2024-02-21T14:17:15;100267.66;;;15.12;46.15
46199;BME280;31928;52.104;10.030;2024-02-21T14:19:41;100266.44;;;15.03;45.91
46199;BME280;31928;52.104;10.030;2024-02-21T14:22:08;100285.88;;;15.33;47.07
46199;BME280;31928;52.104;10.030;2024-02-21T14:24:36;100281.78;;;15.02;46.38
46199;BME280;31928;52.104;10.030;2024-02-21T14:27:03;100304.03;;;14.93;46.91
46199;BME280;31928;52.104;10.030;2024-02-21T14:29:30;100272.94;;;14.91;47.02
46199;BME280;31928;52.104;10.030;2024-02-21T14:31:57;100275.13;;;15.21;47.28
46199;BME280;31928;52.104;10.030;2024-02-21T14:34:23;100246.28;;;14.94;47.20
46199;BME280;31928;52.104;10.030;2024-02-21T14:36:50;100224.00;;;14.87;47.54
46199;BME280;31928;52.104;10.030;2024-02-21T14:39:17;100208.31;;;15.17;47.66
46199;BME280;31928;52.104;10.030;2024-02-21T14:41:43;100202.91;;;14.84;47.95
46199;BME280;31928;52.104;10.030;2024-02-21T14:44:10;100188.22;;;15.08;47.97
46199;BME280;31928;52.104;10.030;2024-02-21T14:46:37;100187.38;;;14.75;47.91
46199;BME280;31928;52.104;10.030;2024-02-21T14:49:04;100179.09;;;14.65;47.96
46199;BME280;31928;52.104;10.030;2024-02-21T14:51:31;100175.97;;;14.56;48.16
46199;BME280;31928;52.104;10.030;2024-02-21T14:53:58;100168.53;;;14.47;48.86
46199;BME280;31928;52.104;10.030;2024-02-21T14:56:25;100151.72;;;14.73;48.62
46199;BME280;31928;52.104;10.030;2024-02-21T14:58:52;100134.66;;;14.40;48.91
46199;BME280;31928;52.104;10.030;2024-02-21T15:01:22;100138.00;;;14.30;49.07
46199;BME280;31928;52.104;10.030;2024-02-21T15:03:49;100136.53;;;14.23;48.97
46199;BME280;31928;52.104;10.030;2024-02-21T15:06:16;100134.78;;;14.17;49.10
46199;BME280;31928;52.104;10.030;2024-02-21T15:08:43;100156.25;;;14.12;49.10
46199;BME280;31928;52.104;10.030;2024-02-21T15:11:10;100133.88;;;14.39;48.58
46199;BME280;31928;52.104;10.030;2024-02-21T15:13:36;100164.00;;;14.08;48.65
46199;BME280;31928;52.104;10.030;2024-02-21T15:16:04;100124.75;;;14.01;48.86
46199;BME280;31928;52.104;10.030;2024-02-21T15:18:31;100104.97;;;13.95;49.23
46199;BME280;31928;52.104;10.030;2024-02-21T15:21:04;100100.78;;;13.88;49.32
46199;BME280;31928;52.104;10.030;2024-02-21T15:23:30;100097.72;;;13.84;48.88
46199;BME280;31928;52.104;10.030;2024-02-21T15:25:57;100097.28;;;14.15;49.09
46199;BME280;31928;52.104;10.030;2024-02-21T15:28:26;100082.63;;;13.83;49.09
46199;BME280;31928;52.104;10.030;2024-02-21T15:30:55;100091.53;;;13.84;49.00
46199;BME280;31928;52.104;10.030;2024-02-21T15:33:22;100068.00;;;13.79;49.05
46199;BME280;31928;52.104;10.030;2024-02-21T15:35:49;100055.81;;;13.77;49.26
46199;BME280;31928;52.104;10.030;2024-02-21T15:38:17;100042.34;;;13.77;49.19
46199;BME280;31928;52.104;10.030;2024-02-21T15:40:43;100025.91;;;14.06;49.26
46199;BME280;31928;52.104;10.030;2024-02-21T15:43:10;100010.59;;;13.79;48.78
46199;BME280;31928;52.104;10.030;2024-02-21T15:45:36;100025.59;;;14.03;49.04
46199;BME280;31928;52.104;10.030;2024-02-21T15:48:09;100015.75;;;13.80;48.95
46199;BME280;31928;52.104;10.030;2024-02-21T15:50:35;100014.75;;;13.70;48.81
46199;BME280;31928;52.104;10.030;2024-02-21T15:53:03;99993.69;;;13.67;48.74
46199;BME280;31928;52.104;10.030;2024-02-21T15:55:30;99971.53;;;13.93;48.46
46199;BME280;31928;52.104;10.030;2024-02-21T15:57:57;99967.81;;;13.66;48.98
46199;BME280;31928;52.104;10.030;2024-02-21T16:00:23;99956.94;;;13.61;48.81
46199;BME280;31928;52.104;10.030;2024-02-21T16:02:50;99933.19;;;13.58;48.61
46199;BME280;31928;52.104;10.030;2024-02-21T16:05:17;99928.84;;;13.57;48.80
46199;BME280;31928;52.104;10.030;2024-02-21T16:07:44;99924.44;;;13.51;48.53
46199;BME280;31928;52.104;10.030;2024-02-21T16:10:10;99908.81;;;13.81;48.77
46199;BME280;31928;52.104;10.030;2024-02-21T16:12:37;99896.44;;;13.52;48.44
46199;BME280;31928;52.104;10.030;2024-02-21T16:15:08;99896.34;;;13.47;48.50
46199;BME280;31928;52.104;10.030;2024-02-21T16:17:35;99894.16;;;13.44;48.38
46199;BME280;31928;52.104;10.030;2024-02-21T16:20:01;99883.34;;;13.72;48.70
46199;BME280;31928;52.104;10.030;2024-02-21T16:22:29;99916.19;;;13.41;48.38
46199;BME280;31928;52.104;10.030;2024-02-21T16:24:58;99870.31;;;13.36;48.27
46199;BME280;31928;52.104;10.030;2024-02-21T16:27:24;99889.84;;;13.60;47.90
46199;BME280;31928;52.104;10.030;2024-02-21T16:29:51;99891.88;;;13.36;47.36
46199;BME280;31928;52.104;10.030;2024-02-21T16:32:18;99892.13;;;13.35;47.63
46199;BME280;31928;52.104;10.030;2024-02-21T16:34:44;99883.63;;;13.59;48.33
46199;BME280;31928;52.104;10.030;2024-02-21T16:37:11;99891.28;;;13.34;47.70
46199;BME280;31928;52.104;10.030;2024-02-21T16:39:40;99900.91;;;13.30;47.72
46199;BME280;31928;52.104;10.030;2024-02-21T16:42:06;99906.78;;;13.27;47.51
46199;BME280;31928;52.104;10.030;2024-02-21T16:44:33;99898.91;;;13.54;48.00
46199;BME280;31928;52.104;10.030;2024-02-21T16:47:01;99891.78;;;13.31;47.56
46199;BME280;31928;52.104;10.030;2024-02-21T16:49:29;99915.41;;;13.29;47.69
46199;BME280;31928;52.104;10.030;2024-02-21T16:52:01;99923.97;;;13.26;48.18
46199;BME280;31928;52.104;10.030;2024-02-21T16:54:27;99913.09;;;13.49;47.92
46199;BME280;31928;52.104;10.030;2024-02-21T16:56:54;99907.81;;;13.26;47.89
46199;BME280;31928;52.104;10.030;2024-02-21T16:59:20;99946.81;;;13.52;48.18
46199;BME280;31928;52.104;10.030;2024-02-21T17:01:47;99971.28;;;13.22;47.90
46199;BME280;31928;52.104;10.030;2024-02-21T17:04:18;99926.00;;;13.20;48.07
46199;BME280;31928;52.104;10.030;2024-02-21T17:06:46;99931.25;;;13.42;47.70
46199;BME280;31928;52.104;10.030;2024-02-21T17:09:13;99941.66;;;13.22;47.89
46199;BME280;31928;52.104;10.030;2024-02-21T17:11:39;99930.72;;;13.40;47.77
46199;BME280;31928;52.104;10.030;2024-02-21T17:14:06;99933.59;;;13.22;47.86
46199;BME280;31928;52.104;10.030;2024-02-21T17:16:34;99918.97;;;13.19;47.77
46199;BME280;31928;52.104;10.030;2024-02-21T17:19:01;99900.69;;;13.20;48.05
46199;BME280;31928;52.104;10.030;2024-02-21T17:21:28;99912.75;;;13.46;48.39
46199;BME280;31928;52.104;10.030;2024-02-21T17:23:54;99902.34;;;13.21;47.69
46199;BME280;31928;52.104;10.030;2024-02-21T17:26:21;99917.09;;;13.19;47.70
46199;BME280;31928;52.104;10.030;2024-02-21T17:28:50;99910.31;;;13.17;47.76
46199;BME280;31928;52.104;10.030;2024-02-21T17:31:20;99908.22;;;13.19;47.49
46199;BME280;31928;52.104;10.030;2024-02-21T17:33:47;99904.63;;;13.13;47.41
46199;BME280;31928;52.104;10.030;2024-02-21T17:36:14;99924.81;;;13.16;47.00
46199;BME280;31928;52.104;10.030;2024-02-21T17:38:40;99909.25;;;13.45;47.94
46199;BME280;31928;52.104;10.030;2024-02-21T17:41:08;99891.00;;;13.20;47.27
46199;BME280;31928;52.104;10.030;2024-02-21T17:43:35;99899.09;;;13.20;47.38
46199;BME280;31928;52.104;10.030;2024-02-21T17:46:02;99899.41;;;13.23;47.35
46199;BME280;31928;52.104;10.030;2024-02-21T17:48:29;99897.44;;;13.19;47.30
46199;BME280;31928;52.104;10.030;2024-02-21T17:50:56;99893.72;;;13.20;47.18
46199;BME280;31928;52.104;10.030;2024-02-21T17:53:23;99887.13;;;13.43;47.59
46199;BME280;31928;52.104;10.030;2024-02-21T17:55:50;99919.78;;;13.19;47.22
46199;BME280;31928;52.104;10.030;2024-02-21T17:58:17;99920.03;;;13.45;47.02
46199;BME280;31928;52.104;10.030;2024-02-21T18:00:43;99901.84;;;13.24;47.46
46199;BME280;31928;52.104;10.030;2024-02-21T18:03:12;99903.97;;;13.22;47.29
46199;BME280;31928;52.104;10.030;2024-02-21T18:05:41;99878.34;;;13.20;47.17
46199;BME280;31928;52.104;10.030;2024-02-21T18:08:08;99872.50;;;13.23;47.07
46199;BME280;31928;52.104;10.030;2024-02-21T18:10:36;99872.97;;;13.20;47.19
46199;BME280;31928;52.104;10.030;2024-02-21T18:13:05;99858.78;;;13.24;47.56
46199;BME280;31928;52.104;10.030;2024-02-21T18:15:33;99862.31;;;13.25;47.64
46199;BME280;31928;52.104;10.030;2024-02-21T18:17:59;99859.88;;;13.23;47.69
46199;BME280;31928;52.104;10.030;2024-02-21T18:20:26;99852.59;;;13.24;47.62
46199;BME280;31928;52.104;10.030;2024-02-21T18:22:54;99859.63;;;13.25;47.94
46199;BME280;31928;52.104;10.030;2024-02-21T18:25:20;99852.59;;;13.24;47.97
46199;BME280;31928;52.104;10.030;2024-02-21T18:27:50;99844.03;;;13.27;47.70
46199;BME280;31928;52.104;10.030;2024-02-21T18:30:18;99840.53;;;13.26;47.96
46199;BME280;31928;52.104;10.030;2024-02-21T18:32:45;99829.91;;;13.53;48.08
46199;BME280;31928;52.104;10.030;2024-02-21T18:35:12;99830.34;;;13.28;47.75
46199;BME280;31928;52.104;10.030;2024-02-21T18:37:41;99815.72;;;13.24;47.38
46199;BME280;31928;52.104;10.030;2024-02-21T18:40:09;99807.56;;;13.20;47.65
46199;BME280;31928;52.104;10.030;2024-02-21T18:42:39;99812.97;;;13.20;47.34
46199;BME280;31928;52.104;10.030;2024-02-21T18:45:09;99801.69;;;13.22;47.48
46199;BME280;31928;52.104;10.030;2024-02-21T18:47:37;99793.38;;;13.24;47.77
46199;BME280;31928;52.104;10.030;2024-02-21T18:50:04;99794.69;;;13.21;47.53
46199;BME280;31928;52.104;10.030;2024-02-21T18:52:31;99802.19;;;13.20;47.68
46199;BME280;31928;52.104;10.030;2024-02-21T18:54:57;99777.88;;;13.47;47.74
46199;BME280;31928;52.104;10.030;2024-02-21T18:57:24;99770.44;;;13.21;47.25
46199;BME280;31928;52.104;10.030;2024-02-21T18:59:51;99757.16;;;13.48;47.90
46199;BME280;31928;52.104;10.030;2024-02-21T19:02:17;99760.28;;;13.23;47.00
46199;BME280;31928;52.104;10.030;2024-02-21T19:04:44;99758.28;;;13.19;47.21
46199;BME280;31928;52.104;10.030;2024-02-21T19:07:11;99773.63;;;13.19;47.07
46199;BME280;31928;52.104;10.030;2024-02-21T19:09:38;99755.69;;;13.40;47.65
46199;BME280;31928;52.104;10.030;2024-02-21T19:12:06;99753.63;;;13.47;47.49
46199;BME280;31928;52.104;10.030;2024-02-21T19:14:33;99750.31;;;13.24;46.95
46199;BME280;31928;52.104;10.030;2024-02-21T19:16:59;99750.69;;;13.49;48.06
46199;BME280;31928;52.104;10.030;2024-02-21T19:19:27;99755.69;;;13.24;46.84
46199;BME280;31928;52.104;10.030;2024-02-21T19:21:54;99734.06;;;13.19;46.98
46199;BME280;31928;52.104;10.030;2024-02-21T19:24:20;99718.00;;;13.40;47.51
46199;BME280;31928;52.104;10.030;2024-02-21T19:26:47;99727.63;;;13.20;47.01
46199;BME280;31928;52.104;10.030;2024-02-21T19:29:14;99728.59;;;13.14;46.98
46199;BME280;31928;52.104;10.030;2024-02-21T19:31:41;99732.69;;;13.17;47.14
46199;BME280;31928;52.104;10.030;2024-02-21T19:34:08;99717.50;;;13.43;47.36
46199;BME280;31928;52.104;10.030;2024-02-21T19:36:35;99711.25;;;13.21;47.12
46199;BME280;31928;52.104;10.030;2024-02-21T19:39:08;99706.44;;;13.23;47.19
46199;BME280;31928;52.104;10.030;2024-02-21T19:41:37;99702.81;;;13.18;46.81
46199;BME280;31928;52.104;10.030;2024-02-21T19:44:05;99698.28;;;13.19;47.11
46199;BME280;31928;52.104;10.030;2024-02-21T19:46:32;99695.59;;;13.19;46.98
46199;BME280;31928;52.104;10.030;2024-02-21T19:48:59;99680.81;;;13.21;47.33
46199;BME280;31928;52.104;10.030;2024-02-21T19:51:27;99681.63;;;13.21;47.42
46199;BME280;31928;52.104;10.030;2024-02-21T19:53:54;99672.59;;;13.49;47.95
46199;BME280;31928;52.104;10.030;2024-02-21T19:56:39;99655.59;;;13.27;47.25
46199;BME280;31928;52.104;10.030;2024-02-21T19:59:06;99658.41;;;13.53;47.78
46199;BME280;31928;52.104;10.030;2024-02-21T20:01:35;99646.22;;;13.29;47.31
46199;BME280;31928;52.104;10.030;2024-02-21T20:04:05;99637.50;;;13.22;47.04
46199;BME280;31928;52.104;10.030;2024-02-21T20:06:32;99648.81;;;13.24;47.27
46199;BME280;31928;52.104;10.030;2024-02-21T20:08:58;99628.22;;;13.51;47.75
46199;BME280;31928;52.104;10.030;2024-02-21T20:11:27;99611.22;;;13.29;47.09
46199;BME280;31928;52.104;10.030;2024-02-21T20:13:56;99616.53;;;13.24;46.97
46199;BME280;31928;52.104;10.030;2024-02-21T20:16:24;99620.84;;;13.25;46.97
46199;BME280;31928;52.104;10.030;2024-02-21T20:18:51;99636.44;;;13.23;46.79
46199;BME280;31928;52.104;10.030;2024-02-21T20:21:18;99606.84;;;13.23;47.04
46199;BME280;31928;52.104;10.030;2024-02-21T20:23:46;99612.78;;;13.25;47.17
46199;BME280;31928;52.104;10.030;2024-02-21T20:26:13;99607.41;;;13.25;46.66
46199;BME280;31928;52.104;10.030;2024-02-21T20:28:40;99606.72;;;13.56;47.86
46199;BME280;31928;52.104;10.030;2024-02-21T20:31:07;99592.38;;;13.29;46.94
46199;BME280;31928;52.104;10.030;2024-02-21T20:33:33;99588.13;;;13.33;47.28
46199;BME280;31928;52.104;10.030;2024-02-21T20:36:00;99587.38;;;13.59;47.66
46199;BME280;31928;52.104;10.030;2024-02-21T20:38:26;99589.75;;;13.34;47.10
46199;BME280;31928;52.104;10.030;2024-02-21T20:40:53;99568.03;;;13.62;47.94
46199;BME280;31928;52.104;10.030;2024-02-21T20:43:20;99567.16;;;13.35;47.38
46199;BME280;31928;52.104;10.030;2024-02-21T20:45:48;99545.03;;;13.33;47.86
46199;BME280;31928;52.104;10.030;2024-02-21T20:48:15;99550.44;;;13.33;48.18
46199;BME280;31928;52.104;10.030;2024-02-21T20:50:42;99528.59;;;13.30;47.85
46199;BME280;31928;52.104;10.030;2024-02-21T20:53:08;99527.69;;;13.24;47.87
46199;BME280;31928;52.104;10.030;2024-02-21T20:55:35;99521.06;;;13.53;48.19
46199;BME280;31928;52.104;10.030;2024-02-21T20:58:02;99502.50;;;13.30;48.10
46199;BME280;31928;52.104;10.030;2024-02-21T21:00:29;99498.09;;;13.24;48.66
46199;BME280;31928;52.104;10.030;2024-02-21T21:02:56;99485.22;;;13.48;48.20
46199;BME280;31928;52.104;10.030;2024-02-21T21:05:22;99489.47;;;13.22;48.88
46199;BME280;31928;52.104;10.030;2024-02-21T21:07:51;99478.38;;;13.19;48.51
46199;BME280;31928;52.104;10.030;2024-02-21T21:10:21;99463.50;;;13.12;49.17
46199;BME280;31928;52.104;10.030;2024-02-21T21:12:49;99457.56;;;13.10;48.98
46199;BME280;31928;52.104;10.030;2024-02-21T21:15:16;99454.34;;;13.34;48.79
46199;BME280;31928;52.104;10.030;2024-02-21T21:17:43;99455.13;;;13.08;48.95
46199;BME280;31928;52.104;10.030;2024-02-21T21:20:09;99448.13;;;13.33;49.04
46199;BME280;31928;52.104;10.030;2024-02-21T21:22:39;99472.78;;;12.99;49.27
46199;BME280;31928;52.104;10.030;2024-02-21T21:25:07;99471.13;;;12.98;49.16
46199;BME280;31928;52.104;10.030;2024-02-21T21:27:35;99452.81;;;12.95;49.52
46199;BME280;31928;52.104;10.030;2024-02-21T21:30:03;99447.66;;;12.94;49.46
46199;BME280;31928;52.104;10.030;2024-02-21T21:32:30;99437.34;;;12.86;49.38
46199;BME280;31928;52.104;10.030;2024-02-21T21:34:57;99445.97;;;12.88;49.92
46199;BME280;31928;52.104;10.030;2024-02-21T21:37:25;99421.94;;;12.81;49.90
46199;BME280;31928;52.104;10.030;2024-02-21T21:39:51;99440.09;;;13.12;49.54
46199;BME280;31928;52.104;10.030;2024-02-21T21:42:22;99405.63;;;12.88;49.90
46199;BME280;31928;52.104;10.030;2024-02-21T21:44:49;99411.03;;;12.88;50.10
46199;BME280;31928;52.104;10.030;2024-02-21T21:47:19;99419.00;;;12.83;50.41
46199;BME280;31928;52.104;10.030;2024-02-21T21:49:46;99394.72;;;12.78;50.76
46199;BME280;31928;52.104;10.030;2024-02-21T21:52:13;99407.63;;;12.76;50.68
46199;BME280;31928;52.104;10.030;2024-02-21T21:54:40;99396.84;;;12.76;51.13
46199;BME280;31928;52.104;10.030;2024-02-21T21:57:08;99386.59;;;12.73;51.28
46199;BME280;31928;52.104;10.030;2024-02-21T21:59:34;99390.28;;;12.67;51.39
46199;BME280;31928;52.104;10.030;2024-02-21T22:02:01;99384.72;;;12.95;50.52
46199;BME280;31928;52.104;10.030;2024-02-21T22:04:31;99384.41;;;12.70;51.29
46199;BME280;31928;52.104;10.030;2024-02-21T22:06:58;99370.09;;;12.64;51.58
46199;BME280;31928;52.104;10.030;2024-02-21T22:09:25;99363.06;;;12.85;50.75
46199;BME280;31928;52.104;10.030;2024-02-21T22:11:51;99362.75;;;12.60;51.78
46199;BME280;31928;52.104;10.030;2024-02-21T22:14:18;99345.31;;;12.84;50.49
46199;BME280;31928;52.104;10.030;2024-02-21T22:16:45;99338.81;;;12.58;51.85
46199;BME280;31928;52.104;10.030;2024-02-21T22:19:11;99325.38;;;12.80;50.61
46199;BME280;31928;52.104;10.030;2024-02-21T22:21:38;99350.56;;;12.53;51.57
46199;BME280;31928;52.104;10.030;2024-02-21T22:24:07;99337.31;;;12.46;51.91
46199;BME280;31928;52.104;10.030;2024-02-21T22:26:33;99340.38;;;12.76;50.73
46199;BME280;31928;52.104;10.030;2024-02-21T22:29:00;99314.22;;;12.50;51.77
46199;BME280;31928;52.104;10.030;2024-02-21T22:31:27;99333.91;;;12.77;51.13
46199;BME280;31928;52.104;10.030;2024-02-21T22:33:53;99320.69;;;12.49;52.06
46199;BME280;31928;52.104;10.030;2024-02-21T22:36:24;99312.84;;;12.48;52.05
46199;BME280;31928;52.104;10.030;2024-02-21T22:38:52;99304.75;;;12.43;52.18
46199;BME280;31928;52.104;10.030;2024-02-21T22:41:19;99303.44;;;12.45;52.42
46199;BME280;31928;52.104;10.030;2024-02-21T22:43:47;99301.31;;;12.47;52.57
46199;BME280;31928;52.104;10.030;2024-02-21T22:46:14;99306.69;;;12.47;52.41
46199;BME280;31928;52.104;10.030;2024-02-21T22:48:41;99302.97;;;12.74;51.33
46199;BME280;31928;52.104;10.030;2024-02-21T22:51:07;99294.09;;;12.53;52.72
46199;BME280;31928;52.104;10.030;2024-02-21T22:53:37;99295.41;;;12.50;52.48
46199;BME280;31928;52.104;10.030;2024-02-21T22:56:04;99286.56;;;12.50;52.78
46199;BME280;31928;52.104;10.030;2024-02-21T22:58:31;99282.50;;;12.47;53.05
46199;BME280;31928;52.104;10.030;2024-02-21T23:00:58;99276.38;;;12.52;53.04
46199;BME280;31928;52.104;10.030;2024-02-21T23:03:24;99274.28;;;12.80;51.60
46199;BME280;31928;52.104;10.030;2024-02-21T23:05:51;99261.09;;;12.57;53.02
46199;BME280;31928;52.104;10.030;2024-02-21T23:08:18;99263.78;;;12.57;52.93
46199;BME280;31928;52.104;10.030;2024-02-21T23:10:45;99255.47;;;12.85;51.70
46199;BME280;31928;52.104;10.030;2024-02-21T23:13:13;99252.53;;;12.60;53.26
46199;BME280;31928;52.104;10.030;2024-02-21T23:15:39;99241.22;;;12.84;51.86
46199;BME280;31928;52.104;10.030;2024-02-21T23:18:06;99258.72;;;12.60;53.50
46199;BME280;31928;52.104;10.030;2024-02-21T23:20:33;99235.63;;;12.86;52.08
46199;BME280;31928;52.104;10.030;2024-02-21T23:22:59;99230.50;;;12.63;53.08
46199;BME280;31928;52.104;10.030;2024-02-21T23:25:26;99224.84;;;12.86;52.32
46199;BME280;31928;52.104;10.030;2024-02-21T23:27:53;99227.28;;;12.61;53.47